• location
  • image
Airport

AP V2 EN

 

 

Click here to view short presentation ->

Today

Tuesday, 21 October 2014

Weather Forecast

Siauliai 9 °C
   

Aviation Weather Forecast

[source: ADDS]
METAR
EYSA 211150Z 35006KT 9999 BKN020 09/07 Q1004 =
TAF
TAF EYSA 211100Z 2112/2121 05008KT 6000 SCT007 BKN010 =
SR / SS: 05:10 / 15:15 UTC (EYSA 2014-10-21)

Who's Online

We have 5 guests online

tic logo en